Time;durP1;ratioP1;P1;durP2;ratioP2;P2;SDS_P1;SDS_P2;PMS_P1;PMS_P2;Temp;Humidity;BMP_temperature;BMP_pressure;BME280_temperature;BME280_humidity;BME280_pressure;Samples;Min_cycle;Max_cycle;Signal;HPM_P1;HPM_P2
2022/12/28 00:01:30;;;;;;;4.88;2.58;;;;;;;;;;5066752;28;20050;-78
2022/12/28 00:03:58;;;;;;;5.63;2.60;;;;;;;;;;5058890;28;20016;-79
2022/12/28 00:06:25;;;;;;;7.78;3.33;;;;;;;;;;5062071;28;20037;-79
2022/12/28 00:08:54;;;;;;;5.00;2.65;;;;;;;;;;5061377;28;20082;-79
2022/12/28 00:11:22;;;;;;;4.38;2.53;;;;;;;;;;5062344;28;20037;-79
2022/12/28 00:13:47;;;;;;;4.65;2.10;;;;;;;;;;5066046;28;20508;-79
2022/12/28 00:16:30;;;;;;;5.40;2.58;;;;;;;;;;5066785;28;20376;-80
2022/12/28 00:18:57;;;;;;;8.55;2.78;;;;;;;;;;5068152;28;20025;-80
2022/12/28 00:21:23;;;;;;;3.63;2.03;;;;;;;;;;5063973;28;20056;-79
2022/12/28 00:23:50;;;;;;;4.15;2.40;;;;;;;;;;5063398;28;20023;-79
2022/12/28 00:26:16;;;;;;;5.47;2.40;;;;;;;;;;5058768;28;20550;-79
2022/12/28 00:28:41;;;;;;;4.05;2.30;;;;;;;;;;5054995;28;20044;-78
2022/12/28 00:31:07;;;;;;;7.32;2.63;;;;;;;;;;5056797;28;20149;-80
2022/12/28 00:33:32;;;;;;;6.18;2.60;;;;;;;;;;5062661;28;20025;-79
2022/12/28 00:36:00;;;;;;;5.47;2.38;;;;;;;;;;5055703;28;20055;-79
2022/12/28 00:38:27;;;;;;;5.47;2.45;;;;;;;;;;5065404;28;20044;-80
2022/12/28 00:40:52;;;;;;;6.13;2.50;;;;;;;;;;5077212;28;20032;-76
2022/12/28 00:43:18;;;;;;;6.05;2.65;;;;;;;;;;5064044;28;20024;-78
2022/12/28 00:45:45;;;;;;;5.13;2.50;;;;;;;;;;5062306;28;20033;-79
2022/12/28 00:48:10;;;;;;;6.32;2.63;;;;;;;;;;5064416;28;20520;-79
2022/12/28 00:50:36;;;;;;;4.28;2.20;;;;;;;;;;5065831;28;20056;-78
2022/12/28 00:53:01;;;;;;;8.00;2.50;;;;;;;;;;5065883;28;20093;-80
2022/12/28 00:55:29;;;;;;;4.80;2.47;;;;;;;;;;5063813;28;20032;-79
2022/12/28 00:57:58;;;;;;;5.35;2.38;;;;;;;;;;5065753;28;20055;-80
2022/12/28 01:00:23;;;;;;;3.53;2.10;;;;;;;;;;5062161;28;20043;-79
2022/12/28 01:02:49;;;;;;;5.05;2.40;;;;;;;;;;5065687;28;20404;-80
2022/12/28 01:05:14;;;;;;;6.10;2.75;;;;;;;;;;5062482;28;20025;-79
2022/12/28 01:07:39;;;;;;;4.35;2.28;;;;;;;;;;5064095;28;20306;-78
2022/12/28 01:10:05;;;;;;;4.93;2.38;;;;;;;;;;5063764;28;20052;-78
2022/12/28 01:12:30;;;;;;;5.20;2.80;;;;;;;;;;5064759;28;20043;-79
2022/12/28 01:14:56;;;;;;;6.70;2.40;;;;;;;;;;5066592;28;20421;-79
2022/12/28 01:17:22;;;;;;;6.10;2.60;;;;;;;;;;5065617;28;20041;-79
2022/12/28 01:19:47;;;;;;;5.82;2.80;;;;;;;;;;5065570;28;20077;-78
2022/12/28 01:22:13;;;;;;;5.63;2.90;;;;;;;;;;5067733;28;20052;-80
2022/12/28 01:24:39;;;;;;;5.63;2.95;;;;;;;;;;5062493;28;20161;-80
2022/12/28 01:27:04;;;;;;;8.38;2.50;;;;;;;;;;5060591;28;20142;-78
2022/12/28 01:29:30;;;;;;;5.50;2.35;;;;;;;;;;5067021;28;20036;-79
2022/12/28 01:31:55;;;;;;;7.18;2.78;;;;;;;;;;5060758;28;20048;-78
2022/12/28 01:34:20;;;;;;;6.55;3.00;;;;;;;;;;5056698;28;20574;-79
2022/12/28 01:36:46;;;;;;;6.03;2.65;;;;;;;;;;5065141;28;20123;-80
2022/12/28 01:39:11;;;;;;;5.40;3.05;;;;;;;;;;5067623;28;20464;-80
2022/12/28 01:41:39;;;;;;;6.72;2.78;;;;;;;;;;5060048;28;20025;-80
2022/12/28 01:44:05;;;;;;;5.30;2.75;;;;;;;;;;5063045;28;20028;-79
2022/12/28 01:47:02;;;;;;;4.95;2.28;;;;;;;;;;5070163;28;21257;-80
2022/12/28 01:49:33;;;;;;;5.43;2.45;;;;;;;;;;5065559;28;20481;-80
2022/12/28 01:52:01;;;;;;;5.82;2.60;;;;;;;;;;5065495;28;20380;-80
2022/12/28 01:54:31;;;;;;;4.80;2.47;;;;;;;;;;5067134;28;20029;-79
2022/12/28 01:56:57;;;;;;;6.20;2.70;;;;;;;;;;5068756;28;20094;-80
2022/12/28 01:59:26;;;;;;;5.45;2.30;;;;;;;;;;5068978;28;20494;-78
2022/12/28 02:01:52;;;;;;;6.28;2.47;;;;;;;;;;5061075;28;20036;-79
2022/12/28 02:04:17;;;;;;;6.15;2.50;;;;;;;;;;5068464;28;20050;-79
2022/12/28 02:06:43;;;;;;;5.85;2.45;;;;;;;;;;5069356;28;20021;-80
2022/12/28 02:09:27;;;;;;;5.00;2.25;;;;;;;;;;5067710;28;20051;-78
2022/12/28 02:11:53;;;;;;;5.95;2.75;;;;;;;;;;5063057;28;20579;-79
2022/12/28 02:14:19;;;;;;;5.82;2.40;;;;;;;;;;5061156;28;20370;-80
2022/12/28 02:16:45;;;;;;;5.95;2.22;;;;;;;;;;5067330;28;20036;-80
2022/12/28 02:19:16;;;;;;;5.53;2.38;;;;;;;;;;5056716;28;20032;-79
2022/12/28 02:22:21;;;;;;;4.32;2.42;;;;;;;;;;5063120;28;20392;-79
2022/12/28 02:25:23;;;;;;;5.30;2.30;;;;;;;;;;5064627;28;20024;-79
2022/12/28 02:28:29;;;;;;;5.38;2.58;;;;;;;;;;5063602;28;20045;-80
2022/12/28 02:31:04;;;;;;;4.13;2.40;;;;;;;;;;5059464;28;20027;-79
2022/12/28 02:33:39;;;;;;;3.88;2.10;;;;;;;;;;5060106;28;20032;-77
2022/12/28 02:36:21;;;;;;;4.32;2.35;;;;;;;;;;5066922;28;20024;-79
2022/12/28 02:38:52;;;;;;;5.00;2.47;;;;;;;;;;5064375;28;20032;-79
2022/12/28 02:41:21;;;;;;;6.88;2.47;;;;;;;;;;5064431;28;20041;-80
2022/12/28 02:43:47;;;;;;;5.13;2.92;;;;;;;;;;5065563;28;20046;-80
2022/12/28 02:52:40;;;;;;;6.63;3.00;;;;;;;;;;5064928;28;20040;-79
2022/12/28 02:56:06;;;;;;;5.50;2.75;;;;;;;;;;5059217;28;20108;-80
2022/12/28 02:58:42;;;;;;;4.47;2.42;;;;;;;;;;5063962;28;20761;-80
2022/12/28 03:01:10;;;;;;;4.95;2.75;;;;;;;;;;5062392;28;20480;-79
2022/12/28 03:03:54;;;;;;;5.75;2.65;;;;;;;;;;5067052;28;20502;-78
2022/12/28 03:09:51;;;;;;;4.70;2.85;;;;;;;;;;5060795;28;20120;-78
2022/12/28 03:12:35;;;;;;;4.43;2.80;;;;;;;;;;5066181;28;20033;-80
2022/12/28 03:15:14;;;;;;;5.97;2.90;;;;;;;;;;5065446;28;20541;-80
2022/12/28 03:31:34;;;;;;;5.40;2.92;;;;;;;;;;5062978;28;20039;-79
2022/12/28 03:34:07;;;;;;;5.70;3.30;;;;;;;;;;5062523;28;20115;-79
2022/12/28 03:36:42;;;;;;;5.25;2.97;;;;;;;;;;5062125;28;20028;-79
2022/12/28 03:39:23;;;;;;;5.78;3.15;;;;;;;;;;5061186;28;20028;-79
2022/12/28 03:45:21;;;;;;;5.47;2.88;;;;;;;;;;5065330;28;20081;-79
2022/12/28 03:47:50;;;;;;;6.68;3.13;;;;;;;;;;5061677;28;20476;-78
2022/12/28 03:50:18;;;;;;;6.60;3.40;;;;;;;;;;5067538;28;20119;-80
2022/12/28 03:52:43;;;;;;;5.57;3.30;;;;;;;;;;5059096;28;20085;-79
2022/12/28 03:55:10;;;;;;;6.10;2.97;;;;;;;;;;5066012;28;20017;-79
2022/12/28 03:57:35;;;;;;;5.82;3.35;;;;;;;;;;5064242;28;20114;-80
2022/12/28 04:00:01;;;;;;;4.63;3.10;;;;;;;;;;5064919;28;20032;-80
2022/12/28 04:02:26;;;;;;;4.85;2.78;;;;;;;;;;5064314;28;20388;-79
2022/12/28 04:04:52;;;;;;;6.07;3.50;;;;;;;;;;5063511;28;20473;-79
2022/12/28 04:07:17;;;;;;;5.82;3.22;;;;;;;;;;5060671;28;20727;-77
2022/12/28 04:09:42;;;;;;;6.10;3.17;;;;;;;;;;5066608;28;20103;-77
2022/12/28 04:12:11;;;;;;;5.88;3.08;;;;;;;;;;5064857;28;20506;-79
2022/12/28 04:14:36;;;;;;;4.95;2.97;;;;;;;;;;5064610;28;20028;-79
2022/12/28 04:17:01;;;;;;;5.78;3.60;;;;;;;;;;5062917;28;20032;-79
2022/12/28 04:19:27;;;;;;;7.30;3.67;;;;;;;;;;5061923;28;20029;-80
2022/12/28 04:21:52;;;;;;;6.05;3.25;;;;;;;;;;5057586;28;20024;-79
2022/12/28 04:24:18;;;;;;;6.28;3.20;;;;;;;;;;5057074;28;20116;-77
2022/12/28 04:26:43;;;;;;;6.50;3.55;;;;;;;;;;5064468;28;20116;-80
2022/12/28 04:29:08;;;;;;;6.05;3.30;;;;;;;;;;5058178;28;20048;-77
2022/12/28 04:31:34;;;;;;;5.47;3.10;;;;;;;;;;5059187;28;20032;-78
2022/12/28 04:33:59;;;;;;;6.53;3.13;;;;;;;;;;5052191;28;20057;-78
2022/12/28 04:36:25;;;;;;;5.85;3.40;;;;;;;;;;5074004;28;20029;-79
2022/12/28 04:38:51;;;;;;;6.30;3.50;;;;;;;;;;5063948;28;20039;-79
2022/12/28 04:41:16;;;;;;;6.10;3.50;;;;;;;;;;5062960;28;20032;-79
2022/12/28 04:43:42;;;;;;;6.85;3.38;;;;;;;;;;5065314;28;20060;-79
2022/12/28 04:46:13;;;;;;;5.80;3.42;;;;;;;;;;5064982;28;20132;-80
2022/12/28 04:48:39;;;;;;;7.32;3.83;;;;;;;;;;5066622;28;20172;-80
2022/12/28 04:51:07;;;;;;;5.40;3.30;;;;;;;;;;5053541;28;20124;-79
2022/12/28 04:53:38;;;;;;;5.97;3.53;;;;;;;;;;5063759;28;20051;-80
2022/12/28 04:56:05;;;;;;;7.18;3.50;;;;;;;;;;5066016;28;20473;-78
2022/12/28 04:58:31;;;;;;;5.32;3.20;;;;;;;;;;5069701;28;20565;-79
2022/12/28 05:01:26;;;;;;;6.93;3.35;;;;;;;;;;5068021;28;20032;-80
2022/12/28 05:03:53;;;;;;;6.45;3.45;;;;;;;;;;5067295;28;20435;-79
2022/12/28 05:06:20;;;;;;;5.45;3.25;;;;;;;;;;5068106;28;20066;-79
2022/12/28 05:08:47;;;;;;;6.05;3.40;;;;;;;;;;5067637;28;20031;-79
2022/12/28 05:11:16;;;;;;;6.75;3.22;;;;;;;;;;5064543;28;20081;-77
2022/12/28 05:13:41;;;;;;;6.25;3.75;;;;;;;;;;5068190;28;20040;-79
2022/12/28 05:16:09;;;;;;;4.70;2.92;;;;;;;;;;5071473;28;20035;-80
2022/12/28 05:18:35;;;;;;;5.43;3.25;;;;;;;;;;5068108;28;20407;-79
2022/12/28 05:21:22;;;;;;;6.28;3.42;;;;;;;;;;5062849;28;20115;-79
2022/12/28 05:23:48;;;;;;;4.93;3.25;;;;;;;;;;5067204;28;20552;-79
2022/12/28 05:26:16;;;;;;;5.40;3.50;;;;;;;;;;5064051;28;20036;-80
2022/12/28 05:28:42;;;;;;;7.03;3.72;;;;;;;;;;5061400;28;20051;-78
2022/12/28 05:31:11;;;;;;;6.65;3.42;;;;;;;;;;5060268;28;20028;-80
2022/12/28 05:33:37;;;;;;;7.07;3.53;;;;;;;;;;5064696;28;20120;-80
2022/12/28 05:36:04;;;;;;;4.90;3.40;;;;;;;;;;5078074;28;20370;-78
2022/12/28 05:38:30;;;;;;;7.32;3.42;;;;;;;;;;5058846;28;20071;-80
2022/12/28 05:40:55;;;;;;;4.45;2.83;;;;;;;;;;5065687;28;20381;-79
2022/12/28 05:43:20;;;;;;;5.47;3.38;;;;;;;;;;5061455;28;20063;-79
2022/12/28 05:45:46;;;;;;;6.32;3.50;;;;;;;;;;5074154;28;20055;-79
2022/12/28 05:48:11;;;;;;;5.78;3.30;;;;;;;;;;5061006;28;20028;-79
2022/12/28 05:50:36;;;;;;;4.65;3.33;;;;;;;;;;5067620;28;20468;-80
2022/12/28 05:53:02;;;;;;;5.45;2.95;;;;;;;;;;5063942;28;20074;-78
2022/12/28 05:55:27;;;;;;;6.18;3.13;;;;;;;;;;5068628;28;20075;-80
2022/12/28 05:57:55;;;;;;;5.78;3.10;;;;;;;;;;5067759;28;20056;-79
2022/12/28 06:00:21;;;;;;;5.05;2.85;;;;;;;;;;5068182;28;20043;-78
2022/12/28 06:02:46;;;;;;;5.28;3.13;;;;;;;;;;5067627;28;20024;-80
2022/12/28 06:05:13;;;;;;;4.85;3.08;;;;;;;;;;5061957;28;20465;-80
2022/12/28 06:07:38;;;;;;;5.93;3.22;;;;;;;;;;5066561;28;20538;-79
2022/12/28 06:10:04;;;;;;;5.85;3.22;;;;;;;;;;5069462;28;20032;-80
2022/12/28 06:12:29;;;;;;;4.88;2.60;;;;;;;;;;5064356;28;20050;-80
2022/12/28 06:14:55;;;;;;;3.83;2.55;;;;;;;;;;5065625;28;20025;-80
2022/12/28 06:17:20;;;;;;;4.20;2.83;;;;;;;;;;5064944;28;20443;-78
2022/12/28 06:19:46;;;;;;;5.28;2.83;;;;;;;;;;5064157;28;20098;-80
2022/12/28 06:22:11;;;;;;;4.97;2.97;;;;;;;;;;5065454;28;20067;-79
2022/12/28 06:24:36;;;;;;;6.13;3.00;;;;;;;;;;5063106;28;20052;-78
2022/12/28 06:27:02;;;;;;;5.10;3.15;;;;;;;;;;5067446;28;20028;-79
2022/12/28 06:29:27;;;;;;;6.85;2.97;;;;;;;;;;5064315;28;20032;-79
2022/12/28 06:31:53;;;;;;;5.40;2.90;;;;;;;;;;5063294;28;20028;-79
2022/12/28 06:34:19;;;;;;;4.47;2.80;;;;;;;;;;5060461;28;20074;-79
2022/12/28 06:36:45;;;;;;;4.38;2.45;;;;;;;;;;5067349;28;20415;-78
2022/12/28 06:39:12;;;;;;;4.93;2.75;;;;;;;;;;5063009;28;20432;-79
2022/12/28 06:41:38;;;;;;;4.45;2.72;;;;;;;;;;5070117;28;20036;-80
2022/12/28 06:44:10;;;;;;;4.07;2.60;;;;;;;;;;5063655;28;20051;-79
2022/12/28 06:46:36;;;;;;;5.15;2.90;;;;;;;;;;5064556;28;20392;-79
2022/12/28 06:49:01;;;;;;;6.53;2.67;;;;;;;;;;5062727;28;20032;-80
2022/12/28 06:51:34;;;;;;;4.40;2.60;;;;;;;;;;5069761;28;20039;-79
2022/12/28 06:54:00;;;;;;;4.40;2.70;;;;;;;;;;5061781;28;20646;-79
2022/12/28 06:56:28;;;;;;;5.47;2.50;;;;;;;;;;5065198;28;20125;-80
2022/12/28 06:58:54;;;;;;;5.15;2.60;;;;;;;;;;5065216;28;20468;-80
2022/12/28 07:01:29;;;;;;;4.43;2.92;;;;;;;;;;5064424;28;20024;-80
2022/12/28 07:03:56;;;;;;;4.60;2.63;;;;;;;;;;5063534;28;20526;-79
2022/12/28 07:06:24;;;;;;;4.57;2.53;;;;;;;;;;5064287;28;20029;-79
2022/12/28 07:08:50;;;;;;;4.28;2.80;;;;;;;;;;5065051;28;20119;-80
2022/12/28 07:11:19;;;;;;;4.90;2.75;;;;;;;;;;5064070;28;20024;-80
2022/12/28 07:13:44;;;;;;;4.45;2.67;;;;;;;;;;5067882;28;20487;-77
2022/12/28 07:16:15;;;;;;;4.00;2.60;;;;;;;;;;5065323;28;20047;-80
2022/12/28 07:18:41;;;;;;;3.88;2.58;;;;;;;;;;5070201;28;20040;-79
2022/12/28 07:21:10;;;;;;;5.63;2.40;;;;;;;;;;5059215;28;20784;-80
2022/12/28 07:23:36;;;;;;;4.53;2.78;;;;;;;;;;5064612;28;20028;-79
2022/12/28 07:26:10;;;;;;;5.40;2.45;;;;;;;;;;5056546;28;20078;-78
2022/12/28 07:28:40;;;;;;;4.38;3.10;;;;;;;;;;5065910;28;20056;-79
2022/12/28 07:31:21;;;;;;;6.32;2.40;;;;;;;;;;5063097;28;20024;-79
2022/12/28 07:33:48;;;;;;;5.55;2.90;;;;;;;;;;5057454;28;20033;-80
2022/12/28 07:36:17;;;;;;;7.40;3.05;;;;;;;;;;5065713;28;20033;-80
2022/12/28 07:38:43;;;;;;;5.30;3.05;;;;;;;;;;5057195;28;20033;-79
2022/12/28 07:41:11;;;;;;;4.82;2.80;;;;;;;;;;5060385;28;20032;-77
2022/12/28 07:43:36;;;;;;;6.63;3.00;;;;;;;;;;5063884;28;20032;-80
2022/12/28 07:46:08;;;;;;;6.30;2.70;;;;;;;;;;5062085;28;20021;-80
2022/12/28 07:48:35;;;;;;;6.45;3.20;;;;;;;;;;5070617;28;20032;-80
2022/12/28 07:51:27;;;;;;;4.68;2.83;;;;;;;;;;5063622;28;20039;-79
2022/12/28 07:53:53;;;;;;;4.85;2.65;;;;;;;;;;5063929;28;20038;-80
2022/12/28 07:56:21;;;;;;;6.45;2.67;;;;;;;;;;5066012;28;20113;-80
2022/12/28 07:58:48;;;;;;;5.05;2.65;;;;;;;;;;5066142;28;20058;-79
2022/12/28 08:01:15;;;;;;;5.32;3.10;;;;;;;;;;5063621;28;20106;-79
2022/12/28 08:03:41;;;;;;;5.22;2.42;;;;;;;;;;5061626;28;20098;-80
2022/12/28 08:06:09;;;;;;;5.05;2.58;;;;;;;;;;5064271;28;20472;-80
2022/12/28 08:08:39;;;;;;;6.60;2.97;;;;;;;;;;5063958;28;20526;-79
2022/12/28 08:11:07;;;;;;;4.43;2.42;;;;;;;;;;5061775;28;20024;-80
2022/12/28 08:13:35;;;;;;;4.53;2.33;;;;;;;;;;5062809;28;20020;-80
2022/12/28 08:16:01;;;;;;;4.70;2.65;;;;;;;;;;5065854;28;20024;-80
2022/12/28 08:18:27;;;;;;;6.57;2.65;;;;;;;;;;5069915;28;20523;-80
2022/12/28 08:20:53;;;;;;;7.45;2.65;;;;;;;;;;5065615;28;20501;-80
2022/12/28 08:23:18;;;;;;;8.60;2.95;;;;;;;;;;5066490;28;20032;-80
2022/12/28 08:25:44;;;;;;;4.10;2.45;;;;;;;;;;5066676;28;20020;-79
2022/12/28 08:28:09;;;;;;;4.03;2.58;;;;;;;;;;5066871;28;20052;-80
2022/12/28 08:30:35;;;;;;;5.82;2.75;;;;;;;;;;5063494;28;20032;-80
2022/12/28 08:33:00;;;;;;;5.60;2.70;;;;;;;;;;5065926;28;20031;-80
2022/12/28 08:35:25;;;;;;;3.88;2.35;;;;;;;;;;5064515;28;20024;-80
2022/12/28 08:37:54;;;;;;;5.82;2.83;;;;;;;;;;5066070;28;20119;-79
2022/12/28 08:40:21;;;;;;;4.85;2.72;;;;;;;;;;5067067;28;20055;-80
2022/12/28 08:42:46;;;;;;;6.03;2.65;;;;;;;;;;5067640;28;20029;-80
2022/12/28 08:45:12;;;;;;;3.70;2.40;;;;;;;;;;5066455;28;20036;-78
2022/12/28 08:47:37;;;;;;;5.10;2.80;;;;;;;;;;5070404;28;20028;-80
2022/12/28 08:50:03;;;;;;;5.53;2.88;;;;;;;;;;5070864;28;20057;-78
2022/12/28 08:52:28;;;;;;;6.43;3.20;;;;;;;;;;5068467;28;20036;-80
2022/12/28 08:54:53;;;;;;;4.72;3.17;;;;;;;;;;5067088;28;20029;-79
2022/12/28 08:57:19;;;;;;;6.72;2.90;;;;;;;;;;5074655;28;20103;-79
2022/12/28 08:59:44;;;;;;;6.30;2.85;;;;;;;;;;5071934;28;20032;-80
2022/12/28 09:02:12;;;;;;;6.85;2.92;;;;;;;;;;5064139;28;20036;-79
2022/12/28 09:04:37;;;;;;;8.88;3.00;;;;;;;;;;5066623;28;20150;-80
2022/12/28 09:07:03;;;;;;;4.45;2.70;;;;;;;;;;5063842;28;20500;-79
2022/12/28 09:09:28;;;;;;;5.47;2.78;;;;;;;;;;5066932;28;20115;-80
2022/12/28 09:11:53;;;;;;;6.03;2.80;;;;;;;;;;5067253;28;20029;-79
2022/12/28 09:14:19;;;;;;;7.88;2.85;;;;;;;;;;5066748;28;20052;-79
2022/12/28 09:16:44;;;;;;;7.10;3.20;;;;;;;;;;5064593;28;20025;-77
2022/12/28 09:19:13;;;;;;;4.15;2.65;;;;;;;;;;5065274;28;20416;-79
2022/12/28 09:21:38;;;;;;;6.00;3.05;;;;;;;;;;5067630;28;20052;-80
2022/12/28 09:24:05;;;;;;;5.78;2.85;;;;;;;;;;5066800;28;20105;-80
2022/12/28 09:26:34;;;;;;;5.55;2.80;;;;;;;;;;5064300;28;20044;-77
2022/12/28 09:29:01;;;;;;;5.60;2.53;;;;;;;;;;5067756;28;20045;-77
2022/12/28 09:31:29;;;;;;;5.95;2.72;;;;;;;;;;5062352;28;20062;-76
2022/12/28 09:33:59;;;;;;;4.60;2.40;;;;;;;;;;5068004;28;20027;-79
2022/12/28 09:36:35;;;;;;;6.55;3.03;;;;;;;;;;5065664;28;20028;-80
2022/12/28 09:39:12;;;;;;;7.68;2.40;;;;;;;;;;5064989;28;20028;-78
2022/12/28 09:41:44;;;;;;;5.60;2.58;;;;;;;;;;5061140;28;20158;-78
2022/12/28 09:44:13;;;;;;;5.25;2.65;;;;;;;;;;5068418;28;20020;-80
2022/12/28 09:46:43;;;;;;;9.90;2.78;;;;;;;;;;5056459;28;20040;-77
2022/12/28 09:49:15;;;;;;;7.45;2.53;;;;;;;;;;5073917;28;20028;-80
2022/12/28 09:52:04;;;;;;;6.47;2.30;;;;;;;;;;5070080;28;20523;-80
2022/12/28 09:54:30;;;;;;;4.85;2.35;;;;;;;;;;5065242;28;20592;-80
2022/12/28 09:56:55;;;;;;;4.38;2.42;;;;;;;;;;5063299;28;20115;-80
2022/12/28 09:59:24;;;;;;;4.82;2.53;;;;;;;;;;5069422;28;20031;-80
2022/12/28 10:02:02;;;;;;;6.55;2.85;;;;;;;;;;5063234;28;20556;-80
2022/12/28 10:04:28;;;;;;;5.32;3.13;;;;;;;;;;5071256;28;20021;-80
2022/12/28 10:06:55;;;;;;;5.43;2.42;;;;;;;;;;5064703;28;20035;-80
2022/12/28 10:09:28;;;;;;;5.10;2.75;;;;;;;;;;5066158;28;20288;-80
2022/12/28 10:11:54;;;;;;;5.10;2.70;;;;;;;;;;5065048;28;20070;-80
2022/12/28 10:14:26;;;;;;;4.97;2.35;;;;;;;;;;5066602;28;20036;-80
2022/12/28 10:16:52;;;;;;;5.50;2.50;;;;;;;;;;5068685;28;20115;-80
2022/12/28 10:19:21;;;;;;;5.82;2.63;;;;;;;;;;5074953;28;20020;-80
2022/12/28 10:22:02;;;;;;;5.15;2.47;;;;;;;;;;5068867;28;20040;-79
2022/12/28 10:24:29;;;;;;;4.85;2.33;;;;;;;;;;5065344;28;20471;-80
2022/12/28 10:26:57;;;;;;;5.35;2.38;;;;;;;;;;5062426;28;20701;-80
2022/12/28 10:29:23;;;;;;;5.95;2.50;;;;;;;;;;5071050;28;20032;-79
2022/12/28 10:32:15;;;;;;;6.15;2.55;;;;;;;;;;5067340;28;20389;-79
2022/12/28 10:34:57;;;;;;;5.40;2.67;;;;;;;;;;5062128;28;20037;-79
2022/12/28 10:37:26;;;;;;;3.65;2.00;;;;;;;;;;5069139;28;20032;-79
2022/12/28 10:40:00;;;;;;;3.70;1.92;;;;;;;;;;5065067;28;20036;-80
2022/12/28 10:42:30;;;;;;;5.68;2.70;;;;;;;;;;5060700;28;20029;-81
2022/12/28 10:45:06;;;;;;;2.97;1.77;;;;;;;;;;5064053;28;20530;-78
2022/12/28 10:47:39;;;;;;;5.18;1.98;;;;;;;;;;5063742;28;20082;-78
2022/12/28 10:50:25;;;;;;;4.53;2.13;;;;;;;;;;5068156;28;20464;-79
2022/12/28 10:52:56;;;;;;;3.00;1.50;;;;;;;;;;5061957;28;20074;-77
2022/12/28 10:55:27;;;;;;;2.65;1.52;;;;;;;;;;5067331;28;20037;-78
2022/12/28 10:57:52;;;;;;;2.70;1.60;;;;;;;;;;5063595;28;20056;-77
2022/12/28 11:00:20;;;;;;;2.50;1.50;;;;;;;;;;5064724;28;20068;-78
2022/12/28 11:02:46;;;;;;;3.10;1.50;;;;;;;;;;5065832;28;20512;-79
2022/12/28 11:05:20;;;;;;;3.97;1.80;;;;;;;;;;5063414;28;20055;-78
2022/12/28 11:07:47;;;;;;;2.83;1.77;;;;;;;;;;5068906;28;20024;-77
2022/12/28 11:10:24;;;;;;;3.50;1.50;;;;;;;;;;5061494;28;20031;-78
2022/12/28 11:12:53;;;;;;;2.80;1.50;;;;;;;;;;5064084;28;20054;-78
2022/12/28 11:15:22;;;;;;;2.92;1.60;;;;;;;;;;5062327;28;20056;-77
2022/12/28 11:17:59;;;;;;;1.60;1.10;;;;;;;;;;5065736;28;20454;-78
2022/12/28 11:20:38;;;;;;;2.90;1.55;;;;;;;;;;5079257;28;20055;-77
2022/12/28 11:23:05;;;;;;;2.45;1.27;;;;;;;;;;5065465;28;20036;-78
2022/12/28 11:25:33;;;;;;;2.28;1.40;;;;;;;;;;5061053;28;21223;-78
2022/12/28 11:28:00;;;;;;;3.75;1.55;;;;;;;;;;5059812;28;20048;-77
2022/12/28 11:30:27;;;;;;;3.28;1.45;;;;;;;;;;5065285;28;20029;-78
2022/12/28 11:32:58;;;;;;;2.55;1.20;;;;;;;;;;5064698;28;20044;-78
2022/12/28 11:35:37;;;;;;;2.67;1.60;;;;;;;;;;5060767;28;20032;-78
2022/12/28 11:38:06;;;;;;;3.10;1.60;;;;;;;;;;5064671;28;20131;-78
2022/12/28 11:40:51;;;;;;;2.97;1.75;;;;;;;;;;5068836;28;20582;-78
2022/12/28 11:43:29;;;;;;;3.08;1.58;;;;;;;;;;5064430;28;20031;-78
2022/12/28 11:45:58;;;;;;;3.40;1.60;;;;;;;;;;5062243;28;20416;-78
2022/12/28 11:48:42;;;;;;;3.75;1.70;;;;;;;;;;5061586;28;20047;-78
2022/12/28 11:51:28;;;;;;;3.55;1.90;;;;;;;;;;5071319;28;20430;-78
2022/12/28 11:53:58;;;;;;;3.15;1.67;;;;;;;;;;5062153;28;20031;-78
2022/12/28 11:56:43;;;;;;;3.10;1.77;;;;;;;;;;5068110;28;20035;-78
2022/12/28 11:59:26;;;;;;;3.83;1.85;;;;;;;;;;5067510;28;20036;-77
2022/12/28 12:02:05;;;;;;;4.57;1.77;;;;;;;;;;5064388;28;20530;-78
2022/12/28 12:04:39;;;;;;;6.07;1.90;;;;;;;;;;5070188;28;20025;-79
2022/12/28 12:07:22;;;;;;;4.00;1.65;;;;;;;;;;5062110;28;20024;-78
2022/12/28 12:10:11;;;;;;;3.65;1.75;;;;;;;;;;5059845;28;20345;-78
2022/12/28 12:12:47;;;;;;;6.63;1.95;;;;;;;;;;5060228;28;20024;-78
2022/12/28 12:15:18;;;;;;;3.47;1.77;;;;;;;;;;5062307;28;20337;-78
2022/12/28 12:17:45;;;;;;;3.33;1.80;;;;;;;;;;5064562;28;20167;-78
2022/12/28 12:20:22;;;;;;;4.47;2.00;;;;;;;;;;5066181;28;20447;-78
2022/12/28 12:23:16;;;;;;;4.55;1.85;;;;;;;;;;5065993;28;20077;-77
2022/12/28 12:25:45;;;;;;;7.57;3.10;;;;;;;;;;5060977;28;20040;-78
2022/12/28 12:28:29;;;;;;;3.97;2.50;;;;;;;;;;5058886;28;20036;-78
2022/12/28 12:30:55;;;;;;;4.60;2.30;;;;;;;;;;5062341;28;20028;-78
2022/12/28 12:33:26;;;;;;;4.53;2.13;;;;;;;;;;5058305;28;20020;-78
2022/12/28 12:35:54;;;;;;;4.20;2.40;;;;;;;;;;5058894;28;20067;-79
2022/12/28 12:38:39;;;;;;;6.43;2.63;;;;;;;;;;5070121;28;20025;-78
2022/12/28 12:41:28;;;;;;;4.85;2.20;;;;;;;;;;5070797;28;20472;-79
2022/12/28 12:43:57;;;;;;;4.90;2.08;;;;;;;;;;5065556;28;20044;-79
2022/12/28 12:46:43;;;;;;;4.05;2.28;;;;;;;;;;5057844;28;20032;-79
2022/12/28 12:49:34;;;;;;;6.47;2.50;;;;;;;;;;5060220;28;20025;-78
2022/12/28 12:52:16;;;;;;;4.85;2.40;;;;;;;;;;5070379;28;20029;-78
2022/12/28 12:55:13;;;;;;;5.03;2.28;;;;;;;;;;5059874;28;20029;-77
2022/12/28 12:57:50;;;;;;;5.75;2.17;;;;;;;;;;5055465;28;20052;-77
2022/12/28 13:00:21;;;;;;;4.65;2.28;;;;;;;;;;5058285;28;20070;-78
2022/12/28 13:03:12;;;;;;;4.43;2.38;;;;;;;;;;5064109;28;20070;-76
2022/12/28 13:05:41;;;;;;;5.90;2.22;;;;;;;;;;5058648;28;20024;-77
2022/12/28 13:08:19;;;;;;;5.63;2.40;;;;;;;;;;5062541;28;20078;-77
2022/12/28 13:10:45;;;;;;;4.57;2.13;;;;;;;;;;5060739;28;20393;-78
2022/12/28 13:13:29;;;;;;;4.28;2.25;;;;;;;;;;5068182;28;20025;-78
2022/12/28 13:15:59;;;;;;;4.78;2.28;;;;;;;;;;5066329;28;20028;-77
2022/12/28 13:18:25;;;;;;;6.75;2.00;;;;;;;;;;5051183;28;20024;-78
2022/12/28 13:20:59;;;;;;;5.80;2.42;;;;;;;;;;5054027;28;20071;-78
2022/12/28 13:23:26;;;;;;;5.10;2.25;;;;;;;;;;5057793;28;20028;-77
2022/12/28 13:25:56;;;;;;;5.13;2.33;;;;;;;;;;5054202;28;20016;-77
2022/12/28 13:28:34;;;;;;;9.88;2.50;;;;;;;;;;5056683;28;20056;-77
2022/12/28 13:31:09;;;;;;;5.00;1.98;;;;;;;;;;5065680;28;20100;-78
2022/12/28 13:33:36;;;;;;;5.97;2.28;;;;;;;;;;5066880;28;20039;-79
2022/12/28 13:36:09;;;;;;;6.88;2.20;;;;;;;;;;5062732;28;20043;-78
2022/12/28 13:38:35;;;;;;;4.78;2.17;;;;;;;;;;5059981;28;20059;-78
2022/12/28 13:41:02;;;;;;;4.35;2.10;;;;;;;;;;5064932;28;20063;-77
2022/12/28 13:44:10;;;;;;;8.48;3.45;;;;;;;;;;5061260;28;20397;-79
2022/12/28 13:46:38;;;;;;;6.80;3.25;;;;;;;;;;5067749;28;20047;-79
2022/12/28 13:49:04;;;;;;;4.80;2.33;;;;;;;;;;5070255;28;20111;-79
2022/12/28 13:51:31;;;;;;;5.68;2.58;;;;;;;;;;5072387;28;20510;-78
2022/12/28 13:53:59;;;;;;;6.22;2.40;;;;;;;;;;5071827;28;20056;-79
2022/12/28 13:56:26;;;;;;;6.95;2.60;;;;;;;;;;5071235;28;20036;-79
2022/12/28 13:58:57;;;;;;;4.28;2.30;;;;;;;;;;5065231;28;20119;-78
2022/12/28 14:01:32;;;;;;;5.22;2.17;;;;;;;;;;5073333;28;20028;-79
2022/12/28 14:04:02;;;;;;;5.13;2.10;;;;;;;;;;5063513;28;20531;-78
2022/12/28 14:06:28;;;;;;;6.82;2.50;;;;;;;;;;5067588;28;20025;-79
2022/12/28 14:08:53;;;;;;;3.88;2.03;;;;;;;;;;5068756;28;20368;-79
2022/12/28 14:11:19;;;;;;;6.15;2.35;;;;;;;;;;5066203;28;20474;-79
2022/12/28 14:13:45;;;;;;;4.30;1.90;;;;;;;;;;5062068;28;20426;-78
2022/12/28 14:16:11;;;;;;;5.70;2.28;;;;;;;;;;5062279;28;20435;-78
2022/12/28 14:18:37;;;;;;;4.75;1.92;;;;;;;;;;5067965;28;20029;-79
2022/12/28 14:21:05;;;;;;;3.55;1.80;;;;;;;;;;5053078;28;20062;-79
2022/12/28 14:23:32;;;;;;;4.20;1.70;;;;;;;;;;5062537;28;20464;-78
2022/12/28 14:26:01;;;;;;;15.77;7.05;;;;;;;;;;5064544;28;20502;-79
2022/12/28 14:28:40;;;;;;;4.00;2.55;;;;;;;;;;5060058;28;20068;-79
2022/12/28 14:31:08;;;;;;;3.72;1.80;;;;;;;;;;5065193;28;20484;-79
2022/12/28 14:33:36;;;;;;;5.68;1.88;;;;;;;;;;5063689;28;20044;-79
2022/12/28 14:36:04;;;;;;;6.30;1.75;;;;;;;;;;5053436;28;20050;-77
2022/12/28 14:38:34;;;;;;;4.32;1.83;;;;;;;;;;5065839;28;20249;-79
2022/12/28 14:41:01;;;;;;;4.13;2.05;;;;;;;;;;5063116;28;20113;-79
2022/12/28 14:43:34;;;;;;;4.82;1.88;;;;;;;;;;5051434;28;20025;-78
2022/12/28 14:46:13;;;;;;;;;;;;;;;;;;5067030;28;20111;-78
2022/12/28 14:48:39;;;;;;;4.50;2.10;;;;;;;;;;5052550;28;20102;-77
2022/12/28 14:51:13;;;;;;;6.78;1.90;;;;;;;;;;5056781;28;20492;-77
2022/12/28 14:53:39;;;;;;;7.10;2.10;;;;;;;;;;5056895;28;20028;-76
2022/12/28 14:56:11;;;;;;;3.58;1.92;;;;;;;;;;5064196;28;20086;-78
2022/12/28 14:58:57;;;;;;;6.32;1.80;;;;;;;;;;5048065;28;20429;-78
2022/12/28 15:01:23;;;;;;;5.70;1.83;;;;;;;;;;5055736;28;20077;-78
2022/12/28 15:03:55;;;;;;;4.13;2.00;;;;;;;;;;5057667;28;20487;-78
2022/12/28 15:06:25;;;;;;;4.53;1.67;;;;;;;;;;5051198;28;20032;-78
2022/12/28 15:08:52;;;;;;;4.65;1.73;;;;;;;;;;5056111;28;20077;-77
2022/12/28 15:11:20;;;;;;;5.95;1.73;;;;;;;;;;5056145;28;20044;-78
2022/12/28 15:13:46;;;;;;;5.43;1.90;;;;;;;;;;5059516;28;20035;-78
2022/12/28 15:16:13;;;;;;;4.03;1.63;;;;;;;;;;5061027;28;20033;-78
2022/12/28 15:18:43;;;;;;;4.68;2.00;;;;;;;;;;5071487;28;20032;-77
2022/12/28 15:21:10;;;;;;;4.15;1.80;;;;;;;;;;5059498;28;20107;-77
2022/12/28 15:23:36;;;;;;;3.47;1.80;;;;;;;;;;5062965;28;20038;-78
2022/12/28 15:26:06;;;;;;;6.82;2.05;;;;;;;;;;5056192;28;20543;-78
2022/12/28 15:28:31;;;;;;;5.97;2.22;;;;;;;;;;5058167;28;20052;-78